EW0172 Bagheria IT current weather conditions

sailwx.info

Wind from 043 at 3 knots gusting 5

Air temperature 27.2° C
Dewpoint 20.1° C

Last reported at 2020-Jul-10 19:00 UTC.
Time now 2020-Jul-10 20:02 UTC

Location: N 38°05' E 013°30'.
View on Google Maps.

See reports from other nearby stations

  
Tides and Currents Weather Stations Pressure Air Temp Water Temp Dewpoint Dewpoint Depression Visibility Wind Speed Wind Dir Waves Ship Positions
date/time (UTC)wind fromknots sea level pressurealtimeterstation pressurevisibilityair tempwater tempwave heightnotes
2020-Jul-10 19:00 043 3 gusting 5 27.2
2020-Jul-10 18:45 345 4 gusting 5 27.2
2020-Jul-10 18:30 023 5 gusting 6 27.2
2020-Jul-10 18:15 016 4 gusting 9 27.2
2020-Jul-10 18:00 004 4 gusting 6 27.8
2020-Jul-10 17:45 357 5 gusting 6 27.8
2020-Jul-10 17:30 034 6 gusting 7 28.3
2020-Jul-10 17:15 024 4 gusting 6 28.3
2020-Jul-10 17:00 360 6 gusting 8 28.3
2020-Jul-10 16:45 027 6 gusting 8 28.9
2020-Jul-10 16:30 356 5 gusting 6 28.9
2020-Jul-10 16:15 030 6 gusting 8 28.9
2020-Jul-10 16:00 005 7 gusting 12 28.9
2020-Jul-10 15:45 026 8 gusting 10 28.9
2020-Jul-10 15:30 003 9 gusting 13 29.4
2020-Jul-10 15:15 356 6 gusting 12 29.4
2020-Jul-10 15:00 015 6 gusting 10 30.0
2020-Jul-10 14:45 027 8 gusting 13 29.4
2020-Jul-10 14:30 025 8 gusting 13 29.4
2020-Jul-10 14:15 350 8 gusting 9 29.4
2020-Jul-10 14:00 338 11 gusting 14 29.4
2020-Jul-10 13:45 350 8 gusting 13 30.0
2020-Jul-10 13:30 004 6 gusting 9 30.0
2020-Jul-10 13:15 052 7 gusting 10 30.6
2020-Jul-10 13:00 078 6 gusting 10 30.6
2020-Jul-10 12:45 059 8 gusting 10 30.0
2020-Jul-10 12:30 079 7 gusting 9 30.0
2020-Jul-10 12:15 093 11 gusting 13 30.0
2020-Jul-10 12:00 088 7 gusting 9 30.6
2020-Jul-10 11:45 084 9 gusting 13 30.0
2020-Jul-10 11:30 089 9 gusting 13 30.0
2020-Jul-10 11:15 099 7 gusting 10 30.0
2020-Jul-10 11:00 083 8 gusting 10 30.0
2020-Jul-10 10:45 062 8 gusting 10 30.0
2020-Jul-10 10:30 068 8 gusting 10 29.4
2020-Jul-10 10:15 068 6 gusting 8 30.0
2020-Jul-10 10:00 107 6 gusting 8 29.4
2020-Jul-10 09:45 071 6 gusting 7 29.4
2020-Jul-10 09:30 080 6 gusting 10 29.4
2020-Jul-10 09:15 069 6 gusting 8 28.9
2020-Jul-10 09:00 074 6 gusting 9 28.3
2020-Jul-10 08:45 071 6 gusting 8 28.3
2020-Jul-10 08:30 073 6 gusting 9 28.3
2020-Jul-10 08:15 059 5 gusting 6 27.8
2020-Jul-10 08:00 048 5 gusting 6 27.2
2020-Jul-10 07:45 022 3 gusting 6 27.2
2020-Jul-10 07:30 068 5 gusting 7 27.2
2020-Jul-10 07:15 076 3 gusting 5 26.7
2020-Jul-10 07:00 085 3 gusting 6 26.7
2020-Jul-10 06:45 017 3 gusting 5 26.1
2020-Jul-10 06:30 016 2 gusting 4 26.1
2020-Jul-10 06:15 002 1 gusting 5 25.6
2020-Jul-10 06:00 336 2 gusting 4 25.6
2020-Jul-10 05:45 337 3 gusting 4 25.0
2020-Jul-10 05:30 319 2 gusting 6 25.0
2020-Jul-10 05:15 347 2 gusting 5 25.0
2020-Jul-10 05:00 333 1 gusting 1 25.6
2020-Jul-10 04:45 331 2 gusting 2 25.6
2020-Jul-10 04:30 253 0 gusting 1 25.6
2020-Jul-10 04:15 232 2 gusting 4 25.6
2020-Jul-10 04:00 311 1 gusting 1 25.6
2020-Jul-10 03:45 280 0 gusting 1 25.6
2020-Jul-10 03:30 324 1 gusting 2 25.6
2020-Jul-10 03:15 233 0 gusting 2 25.6
2020-Jul-10 03:00 244 2 gusting 2 25.6
2020-Jul-10 02:45 220 2 gusting 2 25.6
2020-Jul-10 02:30 218 2 gusting 4 25.6
2020-Jul-10 02:15 268 0 gusting 1 25.6
2020-Jul-10 02:00 235 2 gusting 4 25.6
2020-Jul-10 01:45 235 1 gusting 2 25.6
2020-Jul-10 01:30 317 0 gusting 1 25.6
2020-Jul-10 01:15 331 1 gusting 2 25.6
2020-Jul-10 01:00 251 2 gusting 2 25.6
2020-Jul-10 00:45 327 1 gusting 2 25.6
2020-Jul-10 00:30 277 1 gusting 2 25.6
2020-Jul-10 00:15 292 0 gusting 2 25.6
2020-Jul-10 00:00 295 1 gusting 2 25.6
2020-Jul-09 23:45 307 1 gusting 2 25.6
2020-Jul-09 23:30 297 0 gusting 1 25.6
2020-Jul-09 23:15 342 2 gusting 2 25.6
2020-Jul-09 23:00 357 1 gusting 2 26.1
2020-Jul-09 22:45 081 0 gusting 1 26.1
2020-Jul-09 22:30 013 0 gusting 2 26.1
2020-Jul-09 22:15 032 1 gusting 2 26.1
2020-Jul-09 22:00 335 1 gusting 2 26.1
2020-Jul-09 21:45 035 1 gusting 4 26.1
2020-Jul-09 21:30 042 2 gusting 4 26.1
2020-Jul-09 21:15 338 1 gusting 4 26.1
2020-Jul-09 21:00 004 2 gusting 5 26.7
2020-Jul-09 20:45 027 2 gusting 4 26.7
2020-Jul-09 20:30 050 3 gusting 6 26.7
2020-Jul-09 20:15 044 4 gusting 6 26.7
2020-Jul-09 20:00 050 2 gusting 4 26.7
2020-Jul-09 19:45 088 2 gusting 4 26.7
2020-Jul-09 19:30 033 3 gusting 5 26.7
2020-Jul-09 19:15 034 3 gusting 5 26.7
2020-Jul-09 19:00 060 4 gusting 6 26.7
2020-Jul-09 18:45 067 2 gusting 4 27.2
2020-Jul-09 18:30 040 4 gusting 6 27.2
2020-Jul-09 18:15 043 5 gusting 7 27.2
2020-Jul-09 18:00 092 5 gusting 7 27.2
2020-Jul-09 17:45 080 6 gusting 7 27.8
2020-Jul-09 17:30 065 5 gusting 7 27.8
2020-Jul-09 17:15 051 5 gusting 7 27.8
2020-Jul-09 17:00 038 7 gusting 12 27.8
2020-Jul-09 16:45 050 6 gusting 8 27.8
2020-Jul-09 16:30 011 6 gusting 9 27.8
2020-Jul-09 16:15 055 7 gusting 10 27.8
2020-Jul-09 16:00 021 5 gusting 8 27.8
2020-Jul-09 15:45 022 6 gusting 8 27.8
2020-Jul-09 15:30 044 6 gusting 9 27.8
2020-Jul-09 15:15 041 6 gusting 8 27.8
2020-Jul-09 15:00 034 6 gusting 6 28.3
2020-Jul-09 14:45 030 6 gusting 10 28.3
2020-Jul-09 14:30 055 6 gusting 9 28.3
2020-Jul-09 14:15 040 8 gusting 10 28.9
2020-Jul-09 14:00 054 7 gusting 10 29.4
2020-Jul-09 13:45 084 8 gusting 10 29.4
2020-Jul-09 13:30 096 6 gusting 12 29.4
2020-Jul-09 13:15 039 6 gusting 9 29.4
2020-Jul-09 13:00 360 7 gusting 8 29.4
2020-Jul-09 12:45 079 7 gusting 12 29.4
2020-Jul-09 12:30 052 6 gusting 10 29.4
2020-Jul-09 12:15 079 7 gusting 7 29.4
2020-Jul-09 12:00 099 7 gusting 10 29.4
2020-Jul-09 11:45 039 7 gusting 12 29.4
2020-Jul-09 11:30 090 6 gusting 8 29.4
2020-Jul-09 11:15 107 8 gusting 12 29.4
2020-Jul-09 11:00 068 6 gusting 10 28.9
2020-Jul-09 10:45 036 6 gusting 9 28.9
2020-Jul-09 10:30 040 6 gusting 9 27.8
2020-Jul-09 10:15 322 7 gusting 8 27.2
2020-Jul-09 10:00 327 9 gusting 13 26.7
2020-Jul-09 09:45 320 8 gusting 13 26.1
2020-Jul-09 09:30 345 6 gusting 8 26.1
2020-Jul-09 09:15 339 7 gusting 12 25.6
2020-Jul-09 09:00 318 7 gusting 9 25.6
2020-Jul-09 08:45 334 9 gusting 13 25.6
2020-Jul-09 08:30 345 8 gusting 12 25.0
2020-Jul-09 08:15 328 9 gusting 12 25.0
2020-Jul-09 08:00 330 8 gusting 10 25.6
2020-Jul-09 07:45 358 6 gusting 9 25.6
2020-Jul-09 07:30 321 9 gusting 13 25.6
2020-Jul-09 07:15 333 6 gusting 8 25.0
2020-Jul-09 07:00 327 7 gusting 10 25.6
2020-Jul-09 06:45 340 6 gusting 8 26.1
2020-Jul-09 06:30 350 4 gusting 6 25.6
2020-Jul-09 06:15 324 5 gusting 6 25.6
2020-Jul-09 06:00 312 3 gusting 6 25.6
2020-Jul-09 05:45 304 2 gusting 5 25.6
2020-Jul-09 05:30 300 2 gusting 4 25.6
2020-Jul-09 05:15 208 3 gusting 4 25.6
2020-Jul-09 05:00 219 3 gusting 4 25.0
2020-Jul-09 04:45 224 1 gusting 2 25.0
2020-Jul-09 04:30 241 1 gusting 2 25.0
2020-Jul-09 04:15 25.0
2020-Jul-09 04:00 225 0 gusting 1 25.0
2020-Jul-09 03:45 225 2 gusting 2 25.0
2020-Jul-09 03:30 224 2 gusting 2 25.0
2020-Jul-09 03:15 203 2 gusting 4 25.0
2020-Jul-09 03:00 233 1 gusting 2 25.0
2020-Jul-09 02:45 227 2 gusting 2 25.0
2020-Jul-09 02:30 221 3 gusting 4 25.6
2020-Jul-09 02:15 233 2 gusting 4 25.6
2020-Jul-09 02:00 222 2 gusting 2 25.6
2020-Jul-09 01:45 220 1 gusting 2 25.6
2020-Jul-09 01:30 216 2 gusting 2 25.6
2020-Jul-09 01:15 229 2 gusting 4 25.6
2020-Jul-09 01:00 221 2 gusting 2 25.6
2020-Jul-09 00:45 241 2 gusting 4 25.6
2020-Jul-09 00:30 228 2 gusting 4 26.1
2020-Jul-09 00:15 222 2 gusting 2 26.1
2020-Jul-09 00:00 220 2 gusting 2 25.6
2020-Jul-08 23:45 303 0 gusting 1 25.6
2020-Jul-08 23:30 258 0 gusting 1 25.6
2020-Jul-08 23:15 219 1 gusting 1 25.6
2020-Jul-08 23:00 279 0 gusting 1 25.6
2020-Jul-08 22:45 334 2 gusting 5 25.6
2020-Jul-08 22:30 325 2 gusting 4 26.1
2020-Jul-08 22:15 294 0 gusting 1 26.1
2020-Jul-08 22:00 001 0 gusting 2 26.1
2020-Jul-08 21:45 253 1 gusting 2 25.6
2020-Jul-08 21:30 261 2 gusting 4 25.6
2020-Jul-08 21:15 285 1 gusting 2 26.1
2020-Jul-08 21:00 307 2 gusting 4 26.1
2020-Jul-08 20:45 341 1 gusting 2 26.1
2020-Jul-08 20:30 313 1 gusting 1 26.1
2020-Jul-08 20:15 308 2 gusting 2 26.7
2020-Jul-08 20:00 347 3 gusting 4 26.1